Time;durP1;ratioP1;P1;durP2;ratioP2;P2;SDS_P1;SDS_P2;PMS_P1;PMS_P2;Temp;Humidity;BMP_temperature;BMP_pressure;BME280_temperature;BME280_humidity;BME280_pressure;Samples;Min_cycle;Max_cycle;Signal;HPM_P1;HPM_P2
2022/12/27 00:00:52;;;;;;;0.30;0.30;;;2.50;99.90;;;;;;5062169;28;20434;-77
2022/12/27 00:03:25;;;;;;;0.20;0.20;;;2.50;99.90;;;;;;5062378;28;20485;-77
2022/12/27 00:05:52;;;;;;;0.50;0.50;;;2.40;99.90;;;;;;5059290;28;20429;-77
2022/12/27 00:08:19;;;;;;;0.30;0.30;;;2.30;99.90;;;;;;5066639;28;20440;-77
2022/12/27 00:10:45;;;;;;;1.00;0.70;;;2.20;99.90;;;;;;5056634;28;20465;-77
2022/12/27 00:13:12;;;;;;;0.32;0.32;;;2.10;99.90;;;;;;5058612;28;20447;-77
2022/12/27 00:15:39;;;;;;;0.30;0.30;;;2.00;99.90;;;;;;5054817;28;20467;-78
2022/12/27 00:18:05;;;;;;;0.70;0.68;;;2.10;99.90;;;;;;5062035;28;20848;-77
2022/12/27 00:20:35;;;;;;;0.32;0.32;;;2.00;99.90;;;;;;5041489;28;20803;-77
2022/12/27 00:23:02;;;;;;;0.30;0.30;;;2.10;99.90;;;;;;5058297;28;20657;-78
2022/12/27 00:25:29;;;;;;;0.22;0.22;;;2.00;99.90;;;;;;5058784;28;20432;-77
2022/12/27 00:27:56;;;;;;;0.50;0.50;;;1.90;99.90;;;;;;5054368;28;20426;-78
2022/12/27 00:30:22;;;;;;;0.32;0.32;;;1.80;99.90;;;;;;5067350;28;20433;-77
2022/12/27 00:32:49;;;;;;;0.30;0.30;;;1.80;99.90;;;;;;5056047;28;20433;-77
2022/12/27 00:35:16;;;;;;;0.32;0.32;;;1.80;99.90;;;;;;5048066;28;20431;-77
2022/12/27 00:37:46;;;;;;;0.43;0.43;;;1.80;99.90;;;;;;5057337;28;20432;-77
2022/12/27 00:40:12;;;;;;;0.40;0.40;;;1.70;99.90;;;;;;5052075;28;20435;-77
2022/12/27 00:42:39;;;;;;;3.20;0.20;;;1.60;99.90;;;;;;5056351;28;20518;-77
2022/12/27 00:45:07;;;;;;;0.17;0.17;;;1.50;99.90;;;;;;5053858;28;20865;-77
2022/12/27 00:47:36;;;;;;;0.70;0.20;;;1.40;99.90;;;;;;5041608;28;20432;-77
2022/12/27 00:50:03;;;;;;;2.50;0.25;;;1.50;99.90;;;;;;5064423;28;20441;-77
2022/12/27 00:52:32;;;;;;;0.25;0.25;;;1.50;99.90;;;;;;5064480;28;20433;-77
2022/12/27 00:54:59;;;;;;;0.30;0.30;;;1.50;99.90;;;;;;5062121;28;20514;-77
2022/12/27 00:57:26;;;;;;;0.20;0.20;;;1.50;99.90;;;;;;5062701;28;20435;-77
2022/12/27 00:59:52;;;;;;;0.20;0.20;;;1.50;99.90;;;;;;5058815;28;20421;-77
2022/12/27 01:02:22;;;;;;;0.70;0.40;;;1.70;99.90;;;;;;5068449;28;20424;-77
2022/12/27 01:04:49;;;;;;;0.13;0.13;;;1.70;99.90;;;;;;5057095;28;20429;-77
2022/12/27 01:07:15;;;;;;;0.22;0.22;;;1.70;99.90;;;;;;5067425;28;20427;-77
2022/12/27 01:09:42;;;;;;;0.10;0.10;;;1.80;99.90;;;;;;5060825;28;20467;-77
2022/12/27 01:12:09;;;;;;;0.20;0.20;;;1.80;99.90;;;;;;5062456;28;20795;-77
2022/12/27 01:14:36;;;;;;;0.20;0.20;;;1.80;99.90;;;;;;5043891;28;21027;-77
2022/12/27 01:17:02;;;;;;;0.20;0.20;;;1.80;99.90;;;;;;5052434;28;20919;-77
2022/12/27 01:19:29;;;;;;;0.20;0.20;;;1.80;99.90;;;;;;5053051;28;20432;-77
2022/12/27 01:21:56;;;;;;;0.22;0.22;;;1.70;99.90;;;;;;5058444;28;20436;-77
2022/12/27 01:24:22;;;;;;;0.20;0.20;;;1.60;99.90;;;;;;5062662;28;20435;-77
2022/12/27 01:26:49;;;;;;;0.70;0.30;;;1.60;99.90;;;;;;5050515;28;20435;-76
2022/12/27 01:29:16;;;;;;;0.17;0.17;;;1.50;99.90;;;;;;5051631;28;20435;-77
2022/12/27 01:31:43;;;;;;;0.60;0.30;;;1.50;99.90;;;;;;5040039;28;20446;-77
2022/12/27 01:34:10;;;;;;;0.20;0.20;;;1.40;99.90;;;;;;5036416;28;20790;-77
2022/12/27 01:36:44;;;;;;;0.15;0.15;;;1.40;99.90;;;;;;5049904;28;21138;-77
2022/12/27 01:39:12;;;;;;;0.20;0.20;;;1.40;99.90;;;;;;5048231;28;20460;-77
2022/12/27 01:44:37;;;;;;;0.15;0.15;;;1.20;99.90;;;;;;5062971;28;20430;-77
2022/12/27 01:47:41;;;;;;;0.10;0.10;;;1.10;99.90;;;;;;5058911;28;20432;-76
2022/12/27 01:50:20;;;;;;;0.20;0.20;;;1.10;99.90;;;;;;5058665;28;20431;-77
2022/12/27 01:52:53;;;;;;;0.20;0.20;;;1.10;99.90;;;;;;5058416;28;20468;-77
2022/12/27 01:55:26;;;;;;;0.10;0.10;;;1.10;99.90;;;;;;5053376;28;20504;-77
2022/12/27 01:57:59;;;;;;;0.13;0.13;;;1.10;99.90;;;;;;5061321;28;20431;-77
2022/12/27 02:00:26;;;;;;;0.40;0.40;;;1.00;99.90;;;;;;5049758;28;20914;-77
2022/12/27 02:02:53;;;;;;;0.20;0.20;;;0.90;99.90;;;;;;5042795;28;20471;-77
2022/12/27 02:05:26;;;;;;;0.20;0.20;;;0.90;99.90;;;;;;5061026;28;20512;-77
2022/12/27 02:08:31;;;;;;;0.20;0.20;;;0.80;99.90;;;;;;5059072;28;20845;-77
2022/12/27 02:10:58;;;;;;;0.30;0.30;;;0.70;99.90;;;;;;5058276;28;20437;-76
2022/12/27 02:13:25;;;;;;;0.40;0.30;;;0.80;99.90;;;;;;5061113;28;20522;-77
2022/12/27 02:15:54;;;;;;;0.20;0.20;;;0.80;99.90;;;;;;5057376;28;20435;-77
2022/12/27 02:18:21;;;;;;;0.10;0.10;;;0.60;99.90;;;;;;5063937;28;20463;-77
2022/12/27 02:21:21;;;;;;;0.30;0.30;;;0.60;99.90;;;;;;5065927;28;20427;-77
2022/12/27 02:24:03;;;;;;;0.20;0.20;;;0.50;99.90;;;;;;5065022;28;20435;-77
2022/12/27 02:26:35;;;;;;;0.50;0.50;;;0.40;99.90;;;;;;5057794;28;20423;-77
2022/12/27 02:29:17;;;;;;;0.20;0.20;;;0.20;99.90;;;;;;5063681;28;20429;-77
2022/12/27 02:32:04;;;;;;;1.00;0.47;;;0.10;99.90;;;;;;5060589;28;20423;-77
2022/12/27 02:34:47;;;;;;;0.30;0.30;;;0.10;99.90;;;;;;5061275;28;20446;-77
2022/12/27 02:37:14;;;;;;;0.30;0.30;;;0.00;99.90;;;;;;5054417;28;20440;-77
2022/12/27 02:39:45;;;;;;;0.20;0.20;;;-0.10;99.90;;;;;;5049201;28;20433;-77
2022/12/27 02:54:05;;;;;;;0.22;0.22;;;-0.10;99.90;;;;;;5063068;28;21072;-77
2022/12/27 02:57:08;;;;;;;0.10;0.10;;;-0.20;99.90;;;;;;5061259;28;20523;-78
2022/12/27 03:09:01;;;;;;;0.30;0.30;;;-0.40;99.90;;;;;;5064102;28;20895;-77
2022/12/27 03:17:29;;;;;;;0.10;0.10;;;-0.30;99.90;;;;;;5055982;28;20425;-78
2022/12/27 03:25:39;;;;;;;0.10;0.10;;;-0.50;99.90;;;;;;5058222;28;20425;-78
2022/12/27 03:34:31;;;;;;;0.20;0.20;;;-0.20;99.90;;;;;;5062054;28;20441;-78
2022/12/27 03:40:09;;;;;;;1.10;0.70;;;-0.20;99.90;;;;;;5059875;28;20446;-77
2022/12/27 03:48:52;;;;;;;0.10;0.10;;;-0.10;99.90;;;;;;5065375;28;20428;-78
2022/12/27 03:51:25;;;;;;;0.10;0.10;;;-0.20;99.90;;;;;;5064789;28;20434;-78
2022/12/27 03:53:59;;;;;;;0.10;0.10;;;-0.20;99.90;;;;;;5069268;28;20887;-78
2022/12/27 03:56:27;;;;;;;0.10;0.10;;;-0.10;99.90;;;;;;5027713;28;20934;-78
2022/12/27 03:58:56;;;;;;;0.20;0.20;;;-0.10;99.90;;;;;;5055603;28;20437;-78
2022/12/27 04:01:25;;;;;;;1.10;0.30;;;-0.10;99.90;;;;;;5065580;28;20428;-78
2022/12/27 04:03:52;;;;;;;0.20;0.20;;;-0.10;99.90;;;;;;5061807;28;20421;-79
2022/12/27 04:06:21;;;;;;;0.03;0.03;;;-0.10;99.90;;;;;;5070514;28;20906;-77
2022/12/27 04:36:35;;;;;;;0.35;0.35;;;-0.70;99.90;;;;;;5062757;28;20427;-79
2022/12/27 04:39:03;;;;;;;0.20;0.20;;;-0.70;99.90;;;;;;5060683;28;20874;-78
2022/12/27 04:55:35;;;;;;;0.20;0.20;;;-0.30;99.90;;;;;;5059399;28;20433;-78
2022/12/27 04:58:02;;;;;;;0.10;0.10;;;-0.40;99.90;;;;;;5059693;28;20444;-78
2022/12/27 05:03:19;;;;;;;0.10;0.10;;;-0.50;99.90;;;;;;5053677;28;20465;-78
2022/12/27 05:05:47;;;;;;;0.30;0.30;;;-0.50;99.90;;;;;;5056749;28;20468;-79
2022/12/27 05:14:01;;;;;;;0.10;0.10;;;-0.50;99.90;;;;;;5063334;28;20524;-78
2022/12/27 05:16:31;;;;;;;0.43;0.32;;;-0.60;99.90;;;;;;5040707;28;20755;-79
2022/12/27 05:19:01;;;;;;;0.10;0.10;;;-0.50;99.90;;;;;;5065742;28;20483;-78
2022/12/27 05:21:27;;;;;;;0.20;0.20;;;-0.30;99.90;;;;;;5063687;28;20424;-78
2022/12/27 05:26:40;;;;;;;0.10;0.10;;;-0.20;99.90;;;;;;5052842;28;20425;-78
2022/12/27 05:29:07;;;;;;;0.20;0.20;;;-0.10;99.90;;;;;;5059533;28;20895;-78
2022/12/27 05:31:34;;;;;;;0.20;0.20;;;-0.10;99.90;;;;;;5058782;28;20514;-78
2022/12/27 05:34:01;;;;;;;0.93;0.20;;;-0.10;99.90;;;;;;5054681;28;20424;-78
2022/12/27 05:36:28;;;;;;;0.20;0.20;;;-0.20;99.90;;;;;;5058473;28;20507;-78
2022/12/27 05:38:55;;;;;;;0.20;0.20;;;-0.30;99.90;;;;;;5057532;28;20601;-79
2022/12/27 05:41:22;;;;;;;0.30;0.30;;;-0.40;99.90;;;;;;5053973;28;20429;-78
2022/12/27 05:43:49;;;;;;;1.20;0.55;;;-0.40;99.90;;;;;;5041476;28;20495;-79
2022/12/27 05:46:18;;;;;;;0.20;0.20;;;-0.30;99.90;;;;;;5060018;28;20429;-78
2022/12/27 05:48:46;;;;;;;0.20;0.20;;;-0.40;99.90;;;;;;5059804;28;20511;-78
2022/12/27 05:51:19;;;;;;;0.40;0.35;;;-0.50;99.90;;;;;;5040724;28;20469;-78
2022/12/27 05:53:46;;;;;;;0.50;0.10;;;-0.60;99.90;;;;;;5057051;28;20437;-78
2022/12/27 05:56:16;;;;;;;0.20;0.20;;;-0.70;99.90;;;;;;5067044;28;20444;-78
2022/12/27 05:58:43;;;;;;;0.50;0.50;;;-0.80;99.90;;;;;;5055081;28;20429;-78
2022/12/27 06:01:12;;;;;;;0.20;0.20;;;-0.80;99.90;;;;;;5064916;28;20412;-78
2022/12/27 06:03:39;;;;;;;0.30;0.30;;;-0.80;99.90;;;;;;5038443;28;20425;-78
2022/12/27 06:06:07;;;;;;;0.30;0.30;;;-0.80;99.90;;;;;;5063026;28;20767;-78
2022/12/27 06:08:34;;;;;;;0.30;0.30;;;-0.60;99.90;;;;;;5040788;28;20433;-75
2022/12/27 06:11:04;;;;;;;0.20;0.20;;;-0.60;99.90;;;;;;5056300;28;20856;-75
2022/12/27 06:13:31;;;;;;;1.30;0.30;;;-0.60;99.90;;;;;;5035058;28;20439;-76
2022/12/27 06:16:02;;;;;;;0.50;0.50;;;-0.60;99.90;;;;;;5051030;28;20427;-75
2022/12/27 06:18:31;;;;;;;0.50;0.40;;;-0.50;99.90;;;;;;5061857;28;20426;-75
2022/12/27 06:21:10;;;;;;;1.80;0.30;;;-0.50;99.90;;;;;;5069513;28;20429;-75
2022/12/27 06:23:39;;;;;;;0.10;0.10;;;-0.50;99.90;;;;;;5065819;28;20508;-75
2022/12/27 06:26:12;;;;;;;0.20;0.20;;;-0.50;99.90;;;;;;5049594;28;20860;-75
2022/12/27 06:28:39;;;;;;;0.38;0.38;;;-0.60;99.90;;;;;;5058483;28;20482;-75
2022/12/27 06:31:07;;;;;;;1.40;0.70;;;-0.60;99.90;;;;;;5065619;28;20431;-74
2022/12/27 06:33:34;;;;;;;1.10;0.40;;;-0.60;99.90;;;;;;5051486;28;21112;-75
2022/12/27 06:36:06;;;;;;;0.17;0.17;;;-0.60;99.90;;;;;;5055700;28;21164;-75
2022/12/27 06:38:32;;;;;;;3.80;0.60;;;-0.50;99.90;;;;;;5060738;28;20490;-75
2022/12/27 06:41:01;;;;;;;0.98;0.50;;;-0.40;99.90;;;;;;5050825;28;20435;-75
2022/12/27 06:43:28;;;;;;;2.00;0.30;;;-0.30;99.90;;;;;;5056155;28;20419;-74
2022/12/27 06:45:59;;;;;;;0.40;0.40;;;-0.40;99.90;;;;;;5057862;28;20426;-75
2022/12/27 06:48:26;;;;;;;0.30;0.30;;;-0.50;99.90;;;;;;5060131;28;20488;-75
2022/12/27 06:50:58;;;;;;;0.20;0.20;;;-0.60;99.90;;;;;;5057793;28;20437;-75
2022/12/27 06:53:25;;;;;;;0.10;0.10;;;-0.70;99.90;;;;;;5043267;28;20441;-75
2022/12/27 06:55:51;;;;;;;0.60;0.60;;;-0.90;99.90;;;;;;5064175;28;20436;-75
2022/12/27 06:58:18;;;;;;;0.30;0.30;;;-1.00;99.90;;;;;;5057585;28;20433;-75
2022/12/27 07:00:46;;;;;;;1.10;0.40;;;-1.00;99.90;;;;;;5055260;28;20433;-75
2022/12/27 07:03:13;;;;;;;0.20;0.20;;;-1.00;99.90;;;;;;5058397;28;20509;-75
2022/12/27 07:05:40;;;;;;;0.10;0.10;;;-1.10;99.90;;;;;;5055988;28;20464;-75
2022/12/27 07:08:07;;;;;;;0.30;0.30;;;-0.90;99.90;;;;;;5057894;28;20438;-76
2022/12/27 07:10:35;;;;;;;0.10;0.10;;;-0.80;99.90;;;;;;5060836;28;20816;-75
2022/12/27 07:13:04;;;;;;;0.10;0.10;;;-0.80;99.90;;;;;;5061728;28;20523;-75
2022/12/27 07:15:31;;;;;;;0.45;0.45;;;-0.70;99.90;;;;;;5051317;28;20433;-76
2022/12/27 07:18:01;;;;;;;0.20;0.20;;;-0.70;99.90;;;;;;5059934;28;20430;-75
2022/12/27 07:20:28;;;;;;;0.13;0.13;;;-0.80;99.90;;;;;;5053157;28;20435;-75
2022/12/27 07:22:57;;;;;;;0.10;0.10;;;-0.70;99.90;;;;;;5054242;28;20461;-76
2022/12/27 07:25:24;;;;;;;0.30;0.22;;;-0.70;99.90;;;;;;5049264;28;20435;-75
2022/12/27 07:27:51;;;;;;;0.20;0.20;;;-0.70;99.90;;;;;;5037523;28;20428;-75
2022/12/27 07:30:18;;;;;;;2.10;0.50;;;-0.70;99.90;;;;;;5065142;28;20431;-75
2022/12/27 07:32:44;;;;;;;1.20;0.40;;;-0.90;99.90;;;;;;5062965;28;20428;-75
2022/12/27 07:35:11;;;;;;;0.40;0.40;;;-1.00;99.90;;;;;;5053492;28;20439;-75
2022/12/27 07:37:38;;;;;;;0.20;0.20;;;-1.10;99.90;;;;;;5052946;28;20945;-75
2022/12/27 07:40:07;;;;;;;0.50;0.20;;;-1.00;99.90;;;;;;5058818;28;20430;-76
2022/12/27 07:42:35;;;;;;;0.30;0.30;;;-0.90;99.90;;;;;;5054069;28;20423;-75
2022/12/27 07:45:01;;;;;;;0.30;0.30;;;-0.70;99.90;;;;;;5062577;28;20432;-76
2022/12/27 07:47:28;;;;;;;0.40;0.40;;;-0.60;99.90;;;;;;5050108;28;20440;-76
2022/12/27 07:49:55;;;;;;;0.70;0.40;;;-0.50;99.90;;;;;;5062328;28;20435;-76
2022/12/27 07:52:21;;;;;;;0.53;0.53;;;-0.50;99.90;;;;;;5055956;28;20421;-76
2022/12/27 07:54:50;;;;;;;0.20;0.20;;;-0.50;99.90;;;;;;5047305;28;20431;-75
2022/12/27 07:57:17;;;;;;;0.40;0.40;;;-0.50;99.90;;;;;;5054682;28;20544;-76
2022/12/27 07:59:44;;;;;;;0.30;0.30;;;-0.50;99.90;;;;;;5054803;28;21057;-76
2022/12/27 08:02:10;;;;;;;1.00;0.40;;;-0.40;99.90;;;;;;5047476;28;20504;-76
2022/12/27 08:04:37;;;;;;;3.73;1.77;;;-0.30;99.90;;;;;;5063980;28;20542;-76
2022/12/27 08:07:12;;;;;;;8.45;5.07;;;0.00;99.90;;;;;;5062282;28;20435;-77
2022/12/27 08:09:42;;;;;;;4.80;2.53;;;0.30;99.90;;;;;;5063280;28;20460;-76
2022/12/27 08:12:12;;;;;;;0.90;0.85;;;0.40;99.90;;;;;;5059089;28;20433;-76
2022/12/27 08:14:40;;;;;;;2.60;0.70;;;0.60;99.90;;;;;;5038449;28;20427;-76
2022/12/27 08:17:20;;;;;;;0.32;0.30;;;0.60;99.90;;;;;;5058246;28;20528;-77
2022/12/27 08:19:50;;;;;;;0.20;0.20;;;0.80;99.90;;;;;;5062110;28;20433;-77
2022/12/27 08:22:17;;;;;;;0.50;0.40;;;0.80;99.90;;;;;;5056765;28;20953;-77
2022/12/27 08:24:44;;;;;;;0.47;0.47;;;0.90;99.90;;;;;;5066014;28;21088;-77
2022/12/27 08:31:05;;;;;;;0.40;0.17;;;0.90;99.90;;;;;;4997190;28;20847;-75
2022/12/27 08:33:33;;;;;;;1.00;0.50;;;1.00;99.90;;;;;;4985226;28;20441;-75
2022/12/27 08:36:04;;;;;;;0.40;0.40;;;1.10;99.90;;;;;;4991412;28;20428;-76
2022/12/27 08:38:53;;;;;;;0.90;0.43;;;1.20;99.90;;;;;;5001098;28;20441;-75
2022/12/27 08:41:21;;;;;;;0.25;0.25;;;1.40;99.90;;;;;;5004755;28;20928;-76
2022/12/27 08:43:48;;;;;;;0.30;0.30;;;1.60;99.90;;;;;;5001943;28;20431;-76
2022/12/27 08:46:14;;;;;;;0.37;0.37;;;1.80;99.90;;;;;;5005382;28;20485;-76
2022/12/27 08:48:47;;;;;;;0.60;0.40;;;1.90;99.90;;;;;;5002654;28;20451;-76
2022/12/27 08:51:16;;;;;;;0.30;0.30;;;2.00;99.90;;;;;;4996890;28;21197;-76
2022/12/27 08:53:57;;;;;;;0.60;0.25;;;2.20;99.90;;;;;;5000589;28;20436;-75
2022/12/27 08:56:24;;;;;;;0.35;0.35;;;2.30;99.90;;;;;;4981247;28;20432;-76
2022/12/27 08:58:51;;;;;;;0.38;0.32;;;2.40;99.90;;;;;;5008904;28;20435;-76
2022/12/27 09:01:18;;;;;;;0.40;0.40;;;2.50;99.90;;;;;;5002626;28;20436;-76
2022/12/27 09:03:45;;;;;;;0.50;0.50;;;2.50;99.90;;;;;;5005760;28;20429;-75
2022/12/27 09:06:19;;;;;;;0.30;0.30;;;2.50;99.90;;;;;;5004119;28;20432;-76
2022/12/27 09:08:47;;;;;;;0.40;0.22;;;2.70;99.90;;;;;;5057841;28;20431;-75
2022/12/27 09:11:19;;;;;;;0.30;0.30;;;2.80;99.90;;;;;;5038771;28;20436;-76
2022/12/27 09:13:46;;;;;;;0.40;0.40;;;2.90;99.90;;;;;;5055842;28;20433;-75
2022/12/27 09:16:16;;;;;;;0.50;0.40;;;3.10;99.90;;;;;;5059898;28;20523;-75
2022/12/27 09:18:45;;;;;;;0.30;0.30;;;3.40;99.90;;;;;;5069649;28;20429;-75
2022/12/27 09:21:13;;;;;;;0.73;0.38;;;3.80;99.90;;;;;;5058745;28;20866;-74
2022/12/27 09:23:40;;;;;;;1.20;0.50;;;4.10;99.90;;;;;;5066291;28;20475;-75
2022/12/27 09:26:14;;;;;;;0.20;0.20;;;4.10;99.90;;;;;;5050419;28;20433;-74
2022/12/27 09:28:44;;;;;;;1.90;0.50;;;4.20;99.90;;;;;;5065348;28;20425;-75
2022/12/27 09:31:11;;;;;;;0.60;0.40;;;4.10;99.90;;;;;;5053686;28;20992;-74
2022/12/27 09:33:38;;;;;;;0.47;0.47;;;4.10;99.90;;;;;;5057540;28;20903;-73
2022/12/27 09:36:10;;;;;;;0.30;0.30;;;4.10;99.90;;;;;;5060692;28;20430;-75
2022/12/27 09:38:37;;;;;;;0.60;0.60;;;4.20;99.90;;;;;;5060478;28;20938;-75
2022/12/27 09:41:13;;;;;;;1.85;0.68;;;4.30;99.90;;;;;;5047939;28;20538;-74
2022/12/27 09:44:21;;;;;;;0.32;0.32;;;4.40;99.90;;;;;;5062883;28;20428;-74
2022/12/27 09:47:09;;;;;;;0.65;0.43;;;4.70;99.90;;;;;;5059055;28;20428;-74
2022/12/27 09:49:41;;;;;;;0.50;0.50;;;5.00;99.90;;;;;;5053483;28;20544;-74
2022/12/27 09:52:25;;;;;;;1.20;0.60;;;5.20;99.90;;;;;;5055976;28;20435;-74
2022/12/27 09:55:05;;;;;;;1.70;0.70;;;5.40;99.90;;;;;;5055416;28;20431;-73
2022/12/27 09:57:36;;;;;;;1.20;0.60;;;5.70;99.90;;;;;;5061653;28;20924;-73
2022/12/27 10:00:13;;;;;;;1.13;0.73;;;5.70;99.90;;;;;;5044161;28;20436;-74
2022/12/27 10:02:43;;;;;;;0.55;0.55;;;5.80;99.90;;;;;;5052639;28;20440;-73
2022/12/27 10:05:26;;;;;;;0.55;0.55;;;5.70;99.90;;;;;;5056343;28;20511;-73
2022/12/27 10:08:24;;;;;;;0.45;0.40;;;5.50;99.90;;;;;;5057259;28;20910;-73
2022/12/27 10:11:07;;;;;;;0.63;0.50;;;5.40;99.90;;;;;;5062105;28;20459;-73
2022/12/27 10:13:45;;;;;;;1.70;0.50;;;5.30;99.90;;;;;;5059012;28;20438;-73
2022/12/27 10:16:18;;;;;;;1.60;0.70;;;5.20;99.90;;;;;;5060277;28;20444;-73
2022/12/27 10:19:19;;;;;;;1.40;0.60;;;5.10;99.90;;;;;;5069734;28;20465;-73
2022/12/27 10:22:27;;;;;;;0.90;0.63;;;5.00;99.90;;;;;;5049699;28;20431;-73
2022/12/27 10:24:58;;;;;;;0.60;0.60;;;5.00;99.90;;;;;;5001784;28;20465;-73
2022/12/27 10:27:28;;;;;;;0.50;0.50;;;5.10;99.90;;;;;;5059357;28;20450;-74
2022/12/27 10:29:57;;;;;;;0.25;0.25;;;5.20;99.90;;;;;;5064469;28;20454;-73
2022/12/27 10:32:25;;;;;;;0.35;0.35;;;5.20;99.90;;;;;;5052976;28;20761;-73
2022/12/27 10:35:02;;;;;;;0.73;0.73;;;4.90;99.90;;;;;;5067665;28;20449;-73
2022/12/27 10:37:29;;;;;;;0.73;0.73;;;4.90;99.90;;;;;;5062201;28;20432;-73
2022/12/27 10:40:27;;;;;;;0.50;0.50;;;4.80;99.90;;;;;;5058136;28;20444;-74
2022/12/27 10:43:04;;;;;;;0.45;0.45;;;4.70;99.90;;;;;;5050669;28;20436;-73
2022/12/27 10:45:32;;;;;;;2.00;0.50;;;5.00;99.90;;;;;;5051288;28;20456;-74
2022/12/27 10:48:20;;;;;;;0.80;0.60;;;5.50;99.90;;;;;;5062411;28;20437;-74
2022/12/27 10:50:55;;;;;;;0.60;0.60;;;5.90;99.90;;;;;;5060270;28;20774;-75
2022/12/27 10:53:40;;;;;;;0.50;0.50;;;6.10;99.90;;;;;;5053648;28;20519;-74
2022/12/27 10:56:14;;;;;;;0.68;0.68;;;6.20;99.90;;;;;;5057157;28;20508;-74
2022/12/27 10:58:49;;;;;;;0.40;0.40;;;6.30;99.90;;;;;;5056773;28;20442;-75
2022/12/27 11:01:33;;;;;;;1.98;0.57;;;6.40;99.90;;;;;;5078621;28;20980;-74
2022/12/27 11:04:22;;;;;;;1.90;0.60;;;6.60;99.90;;;;;;5057690;28;20442;-75
2022/12/27 11:07:09;;;;;;;0.60;0.60;;;6.60;99.90;;;;;;5042717;28;20439;-75
2022/12/27 11:09:36;;;;;;;4.25;0.75;;;6.80;99.90;;;;;;5048717;28;20423;-75
2022/12/27 11:12:27;;;;;;;1.30;0.52;;;6.70;99.90;;;;;;5063157;28;20430;-75
2022/12/27 11:15:28;;;;;;;0.50;0.50;;;6.70;99.90;;;;;;5066884;28;20437;-75
2022/12/27 11:17:58;;;;;;;0.50;0.40;;;6.60;99.90;;;;;;5070854;28;20637;-75
2022/12/27 11:20:43;;;;;;;0.77;0.77;;;6.70;99.90;;;;;;5057345;28;20453;-75
2022/12/27 11:23:16;;;;;;;0.50;0.50;;;6.80;99.90;;;;;;5037756;28;20425;-75
2022/12/27 11:26:00;;;;;;;0.52;0.52;;;6.90;99.90;;;;;;5054943;28;20437;-75
2022/12/27 11:28:44;;;;;;;1.60;0.67;;;7.00;99.90;;;;;;5069868;28;20463;-75
2022/12/27 11:31:16;;;;;;;1.83;0.88;;;7.20;99.90;;;;;;5059194;28;20433;-75
2022/12/27 11:33:50;;;;;;;0.55;0.55;;;7.50;99.90;;;;;;5073976;28;20430;-75
2022/12/27 11:36:46;;;;;;;1.90;0.80;;;7.70;99.90;;;;;;5065355;28;20431;-75
2022/12/27 11:39:40;;;;;;;1.80;0.50;;;8.00;99.90;;;;;;4986836;28;20450;-75
2022/12/27 11:42:17;;;;;;;1.27;1.17;;;8.10;99.90;;;;;;4984284;28;20443;-75
2022/12/27 11:44:57;;;;;;;1.65;0.60;;;8.30;99.90;;;;;;4984075;28;20440;-75
2022/12/27 11:47:34;;;;;;;1.23;0.88;;;8.40;99.90;;;;;;4988475;28;20995;-74
2022/12/27 11:50:25;;;;;;;0.70;0.70;;;8.40;99.90;;;;;;4981841;28;21161;-69
2022/12/27 11:52:54;;;;;;;1.00;0.60;;;8.70;99.90;;;;;;4959291;28;20439;-74
2022/12/27 11:55:37;;;;;;;1.10;0.50;;;9.10;99.90;;;;;;4979402;28;20468;-74
2022/12/27 11:58:12;;;;;;;0.70;0.50;;;9.00;99.90;;;;;;4995600;28;20628;-74
2022/12/27 12:00:56;;;;;;;1.40;0.50;;;8.70;99.90;;;;;;4990150;28;20439;-74
2022/12/27 12:03:46;;;;;;;0.47;0.47;;;7.70;99.90;;;;;;4995395;28;20430;-74
2022/12/27 12:06:49;;;;;;;0.50;0.50;;;7.50;99.90;;;;;;4975368;28;20454;-74
2022/12/27 12:09:49;;;;;;;1.92;0.60;;;7.20;99.90;;;;;;4975168;28;20430;-75
2022/12/27 12:12:41;;;;;;;0.40;0.40;;;7.00;99.90;;;;;;4977984;28;20446;-74
2022/12/27 12:15:26;;;;;;;0.60;0.60;;;6.70;99.90;;;;;;4985250;28;22694;-74
2022/12/27 12:18:15;;;;;;;0.57;0.57;;;6.70;99.90;;;;;;5060915;28;20461;-75
2022/12/27 12:21:13;;;;;;;1.10;1.00;;;6.90;99.90;;;;;;5058044;28;20429;-74
2022/12/27 12:23:59;;;;;;;1.60;0.50;;;7.40;99.90;;;;;;5055447;28;20447;-75
2022/12/27 12:26:28;;;;;;;0.70;0.63;;;7.80;99.90;;;;;;5052890;28;20824;-74
2022/12/27 12:29:27;;;;;;;0.80;0.80;;;8.10;99.90;;;;;;5055514;28;20442;-75
2022/12/27 12:32:47;;;;;;;0.40;0.40;;;8.10;99.90;;;;;;5061307;28;20436;-74
2022/12/27 12:35:41;;;;;;;0.32;0.32;;;7.40;99.90;;;;;;5022972;28;20459;-74
2022/12/27 12:38:26;;;;;;;0.60;0.60;;;6.90;99.90;;;;;;5027695;28;21227;-74
2022/12/27 12:41:00;;;;;;;3.08;2.42;;;6.70;99.90;;;;;;5029159;28;20431;-74
2022/12/27 12:43:41;;;;;;;2.80;1.35;;;6.70;99.90;;;;;;5034122;28;20437;-75
2022/12/27 12:46:35;;;;;;;0.30;0.30;;;6.80;99.90;;;;;;5032244;28;20435;-75
2022/12/27 12:49:11;;;;;;;1.40;0.50;;;7.10;99.90;;;;;;5032800;28;20434;-75
2022/12/27 12:52:08;;;;;;;0.68;0.68;;;7.50;99.90;;;;;;5036158;28;20445;-75
2022/12/27 12:55:04;;;;;;;0.60;0.60;;;7.30;99.90;;;;;;5034856;28;20453;-75
2022/12/27 12:57:40;;;;;;;0.30;0.30;;;7.00;99.90;;;;;;4997338;28;20439;-75
2022/12/27 13:00:20;;;;;;;3.20;0.82;;;6.60;99.90;;;;;;5041553;28;20823;-75
2022/12/27 13:03:16;;;;;;;0.70;0.57;;;6.20;99.90;;;;;;5025986;28;20460;-74
2022/12/27 13:05:43;;;;;;;2.28;0.68;;;6.00;99.90;;;;;;5037591;28;20432;-75
2022/12/27 13:08:22;;;;;;;0.50;0.50;;;5.90;99.90;;;;;;5056569;28;20427;-75
2022/12/27 13:11:20;;;;;;;1.83;1.13;;;5.90;99.90;;;;;;5056171;28;20971;-75
2022/12/27 13:14:26;;;;;;;0.63;0.63;;;6.00;99.90;;;;;;5059826;28;20431;-73
2022/12/27 13:17:14;;;;;;;0.63;0.63;;;6.20;99.90;;;;;;5052558;28;21008;-75
2022/12/27 13:19:53;;;;;;;2.05;0.60;;;6.40;99.90;;;;;;5058130;28;20506;-75
2022/12/27 13:22:44;;;;;;;2.10;0.60;;;6.50;99.90;;;;;;5061004;28;20509;-75
2022/12/27 13:25:20;;;;;;;0.70;0.70;;;6.60;99.90;;;;;;5057989;28;20794;-75
2022/12/27 13:28:31;;;;;;;1.50;0.80;;;6.80;99.90;;;;;;5055679;28;20431;-74
2022/12/27 13:31:04;;;;;;;0.73;0.73;;;7.00;99.90;;;;;;5047295;28;20433;-74
2022/12/27 13:33:50;;;;;;;0.60;0.60;;;7.00;99.90;;;;;;5051557;28;20941;-74
2022/12/27 13:36:33;;;;;;;1.20;0.50;;;6.90;99.90;;;;;;5045865;28;20437;-75
2022/12/27 13:39:16;;;;;;;0.63;0.63;;;6.60;99.90;;;;;;5056158;28;20430;-74
2022/12/27 13:41:52;;;;;;;0.32;0.32;;;6.60;99.90;;;;;;5058894;28;20433;-74
2022/12/27 13:44:31;;;;;;;0.50;0.50;;;6.60;99.90;;;;;;5058370;28;20424;-74
2022/12/27 13:47:35;;;;;;;0.63;0.63;;;6.50;99.90;;;;;;5053946;28;20432;-74
2022/12/27 13:50:14;;;;;;;0.70;0.70;;;6.40;99.90;;;;;;5043130;28;20489;-74
2022/12/27 13:53:10;;;;;;;0.55;0.32;;;6.40;99.90;;;;;;5051481;28;20513;-74
2022/12/27 13:55:46;;;;;;;0.40;0.40;;;6.30;99.90;;;;;;5052463;28;20429;-74
2022/12/27 13:58:35;;;;;;;0.50;0.50;;;6.10;99.90;;;;;;5060473;28;20616;-74
2022/12/27 14:01:27;;;;;;;0.63;0.60;;;6.10;99.90;;;;;;5045859;28;20820;-74
2022/12/27 14:04:25;;;;;;;0.52;0.52;;;6.00;99.90;;;;;;5047238;28;20429;-75
2022/12/27 14:07:06;;;;;;;0.40;0.40;;;5.90;99.90;;;;;;5057665;28;20496;-74
2022/12/27 14:09:54;;;;;;;0.97;0.50;;;5.80;99.90;;;;;;5027831;28;20600;-75
2022/12/27 14:12:41;;;;;;;2.20;0.70;;;5.70;99.90;;;;;;5048740;28;20433;-74
2022/12/27 14:15:17;;;;;;;0.60;0.43;;;5.60;99.90;;;;;;5051696;28;21382;-74
2022/12/27 14:18:03;;;;;;;0.60;0.60;;;5.50;99.90;;;;;;5056647;28;20437;-74
2022/12/27 14:20:55;;;;;;;0.40;0.40;;;5.50;99.90;;;;;;5053560;28;20438;-74
2022/12/27 14:23:24;;;;;;;1.10;0.50;;;5.40;99.90;;;;;;5048666;28;20425;-75
2022/12/27 14:26:21;;;;;;;1.20;0.55;;;5.40;99.90;;;;;;5048060;28;20437;-74
2022/12/27 14:29:00;;;;;;;0.35;0.25;;;5.40;99.90;;;;;;5055580;28;20437;-74
2022/12/27 14:31:36;;;;;;;0.63;0.63;;;5.40;99.90;;;;;;5057017;28;20521;-74
2022/12/27 14:34:41;;;;;;;2.50;0.47;;;5.30;99.90;;;;;;5046081;28;20435;-75
2022/12/27 14:37:22;;;;;;;2.80;0.43;;;5.20;99.90;;;;;;5056731;28;20433;-74
2022/12/27 14:40:20;;;;;;;1.60;0.80;;;5.20;99.90;;;;;;5046461;28;20429;-74
2022/12/27 14:43:09;;;;;;;0.60;0.50;;;5.10;99.90;;;;;;5062067;28;20541;-74
2022/12/27 14:46:09;;;;;;;0.50;0.50;;;5.10;99.90;;;;;;5050368;28;20450;-75
2022/12/27 14:49:09;;;;;;;0.65;0.50;;;5.00;99.90;;;;;;5035604;28;20453;-74
2022/12/27 14:52:12;;;;;;;0.70;0.70;;;4.90;99.90;;;;;;5062383;28;20427;-74
2022/12/27 14:54:58;;;;;;;0.43;0.43;;;4.80;99.90;;;;;;5051296;28;20476;-74
2022/12/27 14:57:34;;;;;;;0.38;0.38;;;4.80;99.90;;;;;;5058904;28;20873;-74
2022/12/27 15:00:13;;;;;;;1.40;0.40;;;4.70;99.90;;;;;;5051636;28;21120;-75
2022/12/27 15:03:19;;;;;;;0.25;0.25;;;4.70;99.90;;;;;;5052842;28;20433;-74
2022/12/27 15:06:17;;;;;;;0.28;0.28;;;4.60;99.90;;;;;;5050891;28;20499;-74
2022/12/27 15:09:18;;;;;;;0.43;0.38;;;4.50;99.90;;;;;;5061945;28;20448;-74
2022/12/27 15:11:50;;;;;;;0.60;0.60;;;4.40;99.90;;;;;;5053217;28;20431;-74
2022/12/27 15:14:18;;;;;;;0.60;0.60;;;4.20;99.90;;;;;;5038190;28;20447;-74
2022/12/27 15:17:36;;;;;;;0.38;0.38;;;4.10;99.90;;;;;;5048473;28;20436;-74
2022/12/27 15:20:47;;;;;;;0.33;0.33;;;3.90;99.90;;;;;;4960110;28;20590;-74
2022/12/27 15:23:32;;;;;;;0.40;0.40;;;3.80;99.90;;;;;;4907364;29;20471;-74
2022/12/27 15:26:11;;;;;;;0.40;0.40;;;3.70;99.90;;;;;;4908671;29;20441;-75